No particular awareness of the weather is required.    There are no Weather-warnings


Meteo18 Weather Cam more information Meteo18 Weather Cam


Thunder radar more information blitzortung!


Rain radar more information rain snow radar


Visit our other weather sites:

Template documentation
and downloads

And another site



Weather Underground History page Text

Daily Summary for June 2, 2017 Units:  Both    English   Metric
« Previous Day
Next Day »
Daily Weekly Monthly Yearly Custom
  High: Low: Average:
Temperature: 82 °F /  27.8 °C 57.7 °F /  14.3 °C 70.7 °F /  21.5 °C
Dew Point: 64.6 °F /  18.1 °C 55.9 °F /  13.3 °C 61 °F /  16.1 °C
Humidity: 96 % 49 % 73 %
Wind Speed: 9 mph /  14.5 km/h - 1.9 mph /  3 km/h
Wind Gust: 17 mph /  27.4 km/h - -
Wind:- - SW
Pressure: 30.1 in /  1019.2 hPa 30 in /  1015.1 hPa -
Precipitation: 0 in /  0.0 mm    
Historical Graphs
 
 
Tabular Data for June 2, 2017
Time Temperature Dew Point Pressure Wind Wind Speed Wind Gust Humidity Rainfall Rate (Hourly)
00:02 65.1 °F /  18.4 °C 59.9 °F /  15.5 °C 30.1 in /  1019.2 hPa NNW 1 mph /  1.6 km/h 2 mph /  3.2 km/h 83 % 0 in /  0.0 mm
00:12 64.8 °F /  18.2 °C 59.9 °F /  15.5 °C 30.1 in /  1018.8 hPa Calm   2 mph /  3.2 km/h 84 % 0 in /  0.0 mm
00:17 64.6 °F /  18.1 °C 59.7 °F /  15.4 °C 30.1 in /  1018.8 hPa Calm   2 mph /  3.2 km/h 84 % 0 in /  0.0 mm
00:22 64 °F /  17.8 °C 59.4 °F /  15.2 °C 30.1 in /  1018.8 hPa Calm   2 mph /  3.2 km/h 85 % 0 in /  0.0 mm
00:27 63.9 °F /  17.7 °C 59.2 °F /  15.1 °C 30.1 in /  1018.8 hPa Calm     85 % 0 in /  0.0 mm
00:32 63.5 °F /  17.5 °C 58.8 °F /  14.9 °C 30.1 in /  1018.8 hPa Calm     85 % 0 in /  0.0 mm
00:37 63.1 °F /  17.3 °C 58.8 °F /  14.9 °C 30.1 in /  1018.8 hPa Calm     86 % 0 in /  0.0 mm
00:42 62.6 °F /  17.0 °C 58.3 °F /  14.6 °C 30.1 in /  1018.8 hPa Calm     86 % 0 in /  0.0 mm
00:47 62.2 °F /  16.8 °C 58.3 °F /  14.6 °C 30.1 in /  1018.8 hPa Calm     87 % 0 in /  0.0 mm
00:52 62.2 °F /  16.8 °C 59 °F /  15.0 °C 30.1 in /  1018.8 hPa Calm     89 % 0 in /  0.0 mm
00:57 62.4 °F /  16.9 °C 59.2 °F /  15.1 °C 30.1 in /  1018.8 hPa Calm   1 mph /  1.6 km/h 89 % 0 in /  0.0 mm
01:02 62.4 °F /  16.9 °C 58.8 °F /  14.9 °C 30.1 in /  1018.8 hPa Calm   1 mph /  1.6 km/h 88 % 0 in /  0.0 mm
01:07 62.2 °F /  16.8 °C 59 °F /  15.0 °C 30.1 in /  1018.8 hPa Calm   1 mph /  1.6 km/h 89 % 0 in /  0.0 mm
01:12 62.1 °F /  16.7 °C 58.8 °F /  14.9 °C 30.1 in /  1018.5 hPa Calm     89 % 0 in /  0.0 mm
01:17 62.1 °F /  16.7 °C 58.8 °F /  14.9 °C 30.1 in /  1018.8 hPa Calm     89 % 0 in /  0.0 mm
01:22 62.1 °F /  16.7 °C 58.8 °F /  14.9 °C 30.1 in /  1018.8 hPa East 1 mph /  1.6 km/h   89 % 0 in /  0.0 mm
01:32 61.9 °F /  16.6 °C 58.6 °F /  14.8 °C 30.1 in /  1018.5 hPa Calm   2 mph /  3.2 km/h 89 % 0 in /  0.0 mm
01:37 61.9 °F /  16.6 °C 58.6 °F /  14.8 °C 30.1 in /  1018.5 hPa Calm   2 mph /  3.2 km/h 89 % 0 in /  0.0 mm
01:42 61.2 °F /  16.2 °C 57.6 °F /  14.2 °C 30.1 in /  1018.5 hPa Calm   2 mph /  3.2 km/h 88 % 0 in /  0.0 mm
01:47 61.2 °F /  16.2 °C 58.5 °F /  14.7 °C 30.1 in /  1018.5 hPa Calm   2 mph /  3.2 km/h 91 % 0 in /  0.0 mm
01:52 61.3 °F /  16.3 °C 58.5 °F /  14.7 °C 30.1 in /  1018.5 hPa Calm   2 mph /  3.2 km/h 90 % 0 in /  0.0 mm
02:02 60.6 °F /  15.9 °C 57.7 °F /  14.3 °C 30.1 in /  1018.8 hPa Calm   1 mph /  1.6 km/h 90 % 0 in /  0.0 mm
02:12 60.4 °F /  15.8 °C 57.7 °F /  14.3 °C 30.1 in /  1018.5 hPa WNW 2 mph /  3.2 km/h 2 mph /  3.2 km/h 91 % 0 in /  0.0 mm
02:17 60.8 °F /  16.0 °C 58.5 °F /  14.7 °C 30.1 in /  1018.5 hPa WNW 3 mph /  4.8 km/h 3 mph /  4.8 km/h 92 % 0 in /  0.0 mm
02:22 61.3 °F /  16.3 °C 59 °F /  15.0 °C 30.1 in /  1018.5 hPa WNW 1 mph /  1.6 km/h 3 mph /  4.8 km/h 92 % 0 in /  0.0 mm
02:27 61.3 °F /  16.3 °C 58.5 °F /  14.7 °C 30.1 in /  1018.5 hPa Calm   3 mph /  4.8 km/h 90 % 0 in /  0.0 mm
02:32 61.2 °F /  16.2 °C 58.3 °F /  14.6 °C 30.1 in /  1018.2 hPa North 2 mph /  3.2 km/h 3 mph /  4.8 km/h 90 % 0 in /  0.0 mm
02:37 61 °F /  16.1 °C 58.1 °F /  14.5 °C 30.1 in /  1018.2 hPa NNW 2 mph /  3.2 km/h 3 mph /  4.8 km/h 90 % 0 in /  0.0 mm
02:42 61 °F /  16.1 °C 58.1 °F /  14.5 °C 30.1 in /  1018.2 hPa North 3 mph /  4.8 km/h 3 mph /  4.8 km/h 90 % 0 in /  0.0 mm
02:47 60.8 °F /  16.0 °C 58.1 °F /  14.5 °C 30.1 in /  1018.2 hPa NNW 1 mph /  1.6 km/h 3 mph /  4.8 km/h 91 % 0 in /  0.0 mm
02:52 61 °F /  16.1 °C 58.3 °F /  14.6 °C 30.1 in /  1018.2 hPa NNW 1 mph /  1.6 km/h 3 mph /  4.8 km/h 91 % 0 in /  0.0 mm
02:57 61.2 °F /  16.2 °C 58.3 °F /  14.6 °C 30.1 in /  1018.2 hPa Calm   3 mph /  4.8 km/h 90 % 0 in /  0.0 mm
03:02 60.8 °F /  16.0 °C 57.9 °F /  14.4 °C 30.1 in /  1018.2 hPa East 2 mph /  3.2 km/h 3 mph /  4.8 km/h 90 % 0 in /  0.0 mm
03:12 60.3 °F /  15.7 °C 57.6 °F /  14.2 °C 30.1 in /  1018.2 hPa Calm   3 mph /  4.8 km/h 91 % 0 in /  0.0 mm
03:17 60.3 °F /  15.7 °C 57.6 °F /  14.2 °C 30.1 in /  1018.2 hPa Calm   3 mph /  4.8 km/h 91 % 0 in /  0.0 mm
03:22 60.1 °F /  15.6 °C 57.4 °F /  14.1 °C 30.1 in /  1017.8 hPa Calm   1 mph /  1.6 km/h 91 % 0 in /  0.0 mm
03:27 60.3 °F /  15.7 °C 57.9 °F /  14.4 °C 30.1 in /  1017.8 hPa WNW 1 mph /  1.6 km/h 1 mph /  1.6 km/h 92 % 0 in /  0.0 mm
03:32 60.3 °F /  15.7 °C 57.6 °F /  14.2 °C 30.1 in /  1017.8 hPa Calm   1 mph /  1.6 km/h 91 % 0 in /  0.0 mm
03:37 60.4 °F /  15.8 °C 58.1 °F /  14.5 °C 30.1 in /  1017.8 hPa Calm   1 mph /  1.6 km/h 92 % 0 in /  0.0 mm
03:42 60.3 °F /  15.7 °C 57.6 °F /  14.2 °C 30.1 in /  1017.8 hPa NNE 2 mph /  3.2 km/h 2 mph /  3.2 km/h 91 % 0 in /  0.0 mm
03:47 59.9 °F /  15.5 °C 57.2 °F /  14.0 °C 30.1 in /  1018.2 hPa Calm   2 mph /  3.2 km/h 91 % 0 in /  0.0 mm
03:52 59.4 °F /  15.2 °C 56.7 °F /  13.7 °C 30.1 in /  1017.8 hPa North 1 mph /  1.6 km/h 2 mph /  3.2 km/h 91 % 0 in /  0.0 mm
03:57 59.2 °F /  15.1 °C 56.8 °F /  13.8 °C 30.1 in /  1017.8 hPa Calm   2 mph /  3.2 km/h 92 % 0 in /  0.0 mm
04:02 59.2 °F /  15.1 °C 57.2 °F /  14.0 °C 30.1 in /  1017.8 hPa NNW 1 mph /  1.6 km/h 2 mph /  3.2 km/h 93 % 0 in /  0.0 mm
04:07 59.4 °F /  15.2 °C 57 °F /  13.9 °C 30.1 in /  1017.8 hPa WNW 1 mph /  1.6 km/h 2 mph /  3.2 km/h 92 % 0 in /  0.0 mm
04:12 59.2 °F /  15.1 °C 57.2 °F /  14.0 °C 30.1 in /  1017.8 hPa Calm   2 mph /  3.2 km/h 93 % 0 in /  0.0 mm
04:17 59.2 °F /  15.1 °C 57.2 °F /  14.0 °C 30.1 in /  1017.8 hPa Calm   2 mph /  3.2 km/h 93 % 0 in /  0.0 mm
04:22 59.4 °F /  15.2 °C 57.6 °F /  14.2 °C 30.1 in /  1017.8 hPa NNW 1 mph /  1.6 km/h 2 mph /  3.2 km/h 94 % 0 in /  0.0 mm
04:27 59.5 °F /  15.3 °C 57.6 °F /  14.2 °C 30.1 in /  1017.8 hPa Calm   2 mph /  3.2 km/h 93 % 0 in /  0.0 mm
04:32 59.4 °F /  15.2 °C 57.4 °F /  14.1 °C 30.1 in /  1017.8 hPa NNW 1 mph /  1.6 km/h 2 mph /  3.2 km/h 93 % 0 in /  0.0 mm
04:37 59.5 °F /  15.3 °C 57.7 °F /  14.3 °C 30.1 in /  1017.8 hPa Calm   2 mph /  3.2 km/h 94 % 0 in /  0.0 mm
04:42 59.4 °F /  15.2 °C 57.4 °F /  14.1 °C 30.1 in /  1017.8 hPa NW 1 mph /  1.6 km/h 1 mph /  1.6 km/h 93 % 0 in /  0.0 mm
04:47 59 °F /  15.0 °C 57 °F /  13.9 °C 30.1 in /  1017.8 hPa NW 1 mph /  1.6 km/h 1 mph /  1.6 km/h 93 % 0 in /  0.0 mm
04:52 59.4 °F /  15.2 °C 57.6 °F /  14.2 °C 30.1 in /  1017.8 hPa Calm   1 mph /  1.6 km/h 94 % 0 in /  0.0 mm
04:57 59.2 °F /  15.1 °C 57.2 °F /  14.0 °C 30.1 in /  1017.8 hPa Calm   1 mph /  1.6 km/h 93 % 0 in /  0.0 mm
05:02 58.8 °F /  14.9 °C 56.8 °F /  13.8 °C 30.1 in /  1017.8 hPa Calm   1 mph /  1.6 km/h 93 % 0 in /  0.0 mm
05:12 58.5 °F /  14.7 °C 56.7 °F /  13.7 °C 30.1 in /  1017.8 hPa Calm   1 mph /  1.6 km/h 94 % 0 in /  0.0 mm
05:17 58.5 °F /  14.7 °C 56.7 °F /  13.7 °C 30.1 in /  1017.8 hPa Calm   1 mph /  1.6 km/h 94 % 0 in /  0.0 mm
05:22 58.6 °F /  14.8 °C 56.8 °F /  13.8 °C 30.1 in /  1017.8 hPa Calm   1 mph /  1.6 km/h 94 % 0 in /  0.0 mm
05:27 58.5 °F /  14.7 °C 56.7 °F /  13.7 °C 30.1 in /  1017.8 hPa Calm   1 mph /  1.6 km/h 94 % 0 in /  0.0 mm
05:32 58.3 °F /  14.6 °C 56.5 °F /  13.6 °C 30.1 in /  1017.8 hPa Calm   1 mph /  1.6 km/h 94 % 0 in /  0.0 mm
05:37 57.9 °F /  14.4 °C 56.1 °F /  13.4 °C 30.1 in /  1017.8 hPa Calm     94 % 0 in /  0.0 mm
05:42 57.7 °F /  14.3 °C 55.9 °F /  13.3 °C 30.1 in /  1017.8 hPa Calm   1 mph /  1.6 km/h 94 % 0 in /  0.0 mm
05:47 57.9 °F /  14.4 °C 56.5 °F /  13.6 °C 30.1 in /  1017.8 hPa Calm   1 mph /  1.6 km/h 95 % 0 in /  0.0 mm
05:52 57.9 °F /  14.4 °C 56.5 °F /  13.6 °C 30.1 in /  1017.8 hPa Calm   1 mph /  1.6 km/h 95 % 0 in /  0.0 mm
05:57 57.9 °F /  14.4 °C 56.5 °F /  13.6 °C 30.1 in /  1017.8 hPa Calm   1 mph /  1.6 km/h 95 % 0 in /  0.0 mm
06:02 58.5 °F /  14.7 °C 57.4 °F /  14.1 °C 30.1 in /  1017.8 hPa Calm     96 % 0 in /  0.0 mm
06:07 58.5 °F /  14.7 °C 57 °F /  13.9 °C 30.1 in /  1017.8 hPa Calm     95 % 0 in /  0.0 mm
06:12 58.3 °F /  14.6 °C 56.8 °F /  13.8 °C 30.1 in /  1017.8 hPa Calm     95 % 0 in /  0.0 mm
06:17 58.6 °F /  14.8 °C 57.6 °F /  14.2 °C 30.1 in /  1017.8 hPa Calm     96 % 0 in /  0.0 mm
06:22 59.2 °F /  15.1 °C 58.1 °F /  14.5 °C 30.1 in /  1017.8 hPa Calm     96 % 0 in /  0.0 mm
06:27 59.2 °F /  15.1 °C 57.7 °F /  14.3 °C 30.1 in /  1017.8 hPa Calm     95 % 0 in /  0.0 mm
06:32 59 °F /  15.0 °C 57.6 °F /  14.2 °C 30.1 in /  1017.8 hPa Calm     95 % 0 in /  0.0 mm
06:42 59.4 °F /  15.2 °C 57.6 °F /  14.2 °C 30.1 in /  1017.8 hPa Calm     94 % 0 in /  0.0 mm
06:47 59.4 °F /  15.2 °C 57.6 °F /  14.2 °C 30.1 in /  1018.2 hPa Calm     94 % 0 in /  0.0 mm
06:57 59.7 °F /  15.4 °C 57.9 °F /  14.4 °C 30.1 in /  1018.2 hPa Calm     94 % 0 in /  0.0 mm
07:02 59.9 °F /  15.5 °C 58.1 °F /  14.5 °C 30.1 in /  1018.2 hPa Calm     94 % 0 in /  0.0 mm
07:12 61.3 °F /  16.3 °C 59.9 °F /  15.5 °C 30.1 in /  1018.2 hPa Calm     95 % 0 in /  0.0 mm
07:17 62.1 °F /  16.7 °C 60.3 °F /  15.7 °C 30.1 in /  1018.2 hPa Calm     94 % 0 in /  0.0 mm
07:22 62.4 °F /  16.9 °C 60.1 °F /  15.6 °C 30.1 in /  1018.2 hPa Calm     92 % 0 in /  0.0 mm
07:27 62.2 °F /  16.8 °C 59.5 °F /  15.3 °C 30.1 in /  1018.2 hPa Calm     91 % 0 in /  0.0 mm
07:32 62.6 °F /  17.0 °C 60.3 °F /  15.7 °C 30.1 in /  1018.2 hPa Calm     92 % 0 in /  0.0 mm
07:37 63.7 °F /  17.6 °C 61.3 °F /  16.3 °C 30.1 in /  1018.2 hPa Calm     92 % 0 in /  0.0 mm
07:42 64.2 °F /  17.9 °C 60.6 °F /  15.9 °C 30.1 in /  1018.2 hPa Calm     88 % 0 in /  0.0 mm
07:47 64.8 °F /  18.2 °C 60.8 °F /  16.0 °C 30.1 in /  1018.2 hPa Calm   1 mph /  1.6 km/h 87 % 0 in /  0.0 mm
07:52 65.1 °F /  18.4 °C 60.4 °F /  15.8 °C 30.1 in /  1018.2 hPa Calm   1 mph /  1.6 km/h 85 % 0 in /  0.0 mm
07:57 65.7 °F /  18.7 °C 60.4 °F /  15.8 °C 30.1 in /  1018.2 hPa Calm   1 mph /  1.6 km/h 83 % 0 in /  0.0 mm
08:02 66 °F /  18.9 °C 60.6 °F /  15.9 °C 30.1 in /  1018.2 hPa Calm     83 % 0 in /  0.0 mm
08:07 65.7 °F /  18.7 °C 60.4 °F /  15.8 °C 30.1 in /  1018.2 hPa Calm   2 mph /  3.2 km/h 83 % 0 in /  0.0 mm
08:12 66 °F /  18.9 °C 60.6 °F /  15.9 °C 30.1 in /  1018.2 hPa Calm   2 mph /  3.2 km/h 83 % 0 in /  0.0 mm
08:17 66.7 °F /  19.3 °C 61.3 °F /  16.3 °C 30.1 in /  1018.5 hPa Calm   2 mph /  3.2 km/h 83 % 0 in /  0.0 mm
08:22 66.6 °F /  19.2 °C 61 °F /  16.1 °C 30.1 in /  1018.5 hPa SE 2 mph /  3.2 km/h 2 mph /  3.2 km/h 82 % 0 in /  0.0 mm
08:27 66.2 °F /  19.0 °C 60.6 °F /  15.9 °C 30.1 in /  1018.5 hPa Calm   4 mph /  6.4 km/h 82 % 0 in /  0.0 mm
08:32 66.2 °F /  19.0 °C 60.8 °F /  16.0 °C 30.1 in /  1018.5 hPa Calm   4 mph /  6.4 km/h 83 % 0 in /  0.0 mm
08:37 66.4 °F /  19.1 °C 60.8 °F /  16.0 °C 30.1 in /  1018.5 hPa SSW 1 mph /  1.6 km/h 4 mph /  6.4 km/h 82 % 0 in /  0.0 mm
08:42 66.7 °F /  19.3 °C 61.3 °F /  16.3 °C 30.1 in /  1018.5 hPa Calm   3 mph /  4.8 km/h 83 % 0 in /  0.0 mm
08:47 66.9 °F /  19.4 °C 61 °F /  16.1 °C 30.1 in /  1018.5 hPa Calm   3 mph /  4.8 km/h 81 % 0 in /  0.0 mm
08:52 66.9 °F /  19.4 °C 61.2 °F /  16.2 °C 30.1 in /  1018.5 hPa Calm   4 mph /  6.4 km/h 82 % 0 in /  0.0 mm
08:57 67.3 °F /  19.6 °C 61.9 °F /  16.6 °C 30.1 in /  1018.5 hPa Calm   4 mph /  6.4 km/h 83 % 0 in /  0.0 mm
09:02 67.5 °F /  19.7 °C 61.3 °F /  16.3 °C 30.1 in /  1018.5 hPa Calm   3 mph /  4.8 km/h 81 % 0 in /  0.0 mm
09:07 67.6 °F /  19.8 °C 61.5 °F /  16.4 °C 30.1 in /  1018.5 hPa Calm   2 mph /  3.2 km/h 81 % 0 in /  0.0 mm
09:12 67.8 °F /  19.9 °C 62.1 °F /  16.7 °C 30.1 in /  1018.5 hPa Calm   3 mph /  4.8 km/h 82 % 0 in /  0.0 mm
09:17 68.2 °F /  20.1 °C 62.1 °F /  16.7 °C 30.1 in /  1018.5 hPa SSE 1 mph /  1.6 km/h 3 mph /  4.8 km/h 81 % 0 in /  0.0 mm
09:22 68.7 °F /  20.4 °C 62.6 °F /  17.0 °C 30.1 in /  1018.5 hPa Calm   4 mph /  6.4 km/h 81 % 0 in /  0.0 mm
09:27 69.6 °F /  20.9 °C 63.1 °F /  17.3 °C 30.1 in /  1018.5 hPa Calm   4 mph /  6.4 km/h 80 % 0 in /  0.0 mm
09:32 70 °F /  21.1 °C 62.8 °F /  17.1 °C 30.1 in /  1018.5 hPa South 1 mph /  1.6 km/h 3 mph /  4.8 km/h 78 % 0 in /  0.0 mm
09:37 69.4 °F /  20.8 °C 62.2 °F /  16.8 °C 30.1 in /  1018.5 hPa SW 4 mph /  6.4 km/h 4 mph /  6.4 km/h 78 % 0 in /  0.0 mm
09:42 69.3 °F /  20.7 °C 62.4 °F /  16.9 °C 30.1 in /  1018.5 hPa Calm   4 mph /  6.4 km/h 79 % 0 in /  0.0 mm
09:47 69.6 °F /  20.9 °C 62.4 °F /  16.9 °C 30.1 in /  1018.5 hPa SW 3 mph /  4.8 km/h 4 mph /  6.4 km/h 78 % 0 in /  0.0 mm
09:52 70 °F /  21.1 °C 62.8 °F /  17.1 °C 30.1 in /  1018.5 hPa ESE 1 mph /  1.6 km/h 4 mph /  6.4 km/h 78 % 0 in /  0.0 mm
09:57 70.7 °F /  21.5 °C 63.1 °F /  17.3 °C 30.1 in /  1018.5 hPa Calm   4 mph /  6.4 km/h 77 % 0 in /  0.0 mm
10:02 71.4 °F /  21.9 °C 64.2 °F /  17.9 °C 30.1 in /  1018.2 hPa SSW 1 mph /  1.6 km/h 5 mph /  8.0 km/h 78 % 0 in /  0.0 mm
10:07 72 °F /  22.2 °C 63.7 °F /  17.6 °C 30.1 in /  1018.5 hPa Calm   5 mph /  8.0 km/h 75 % 0 in /  0.0 mm
10:12 72.3 °F /  22.4 °C 63.9 °F /  17.7 °C 30.1 in /  1018.2 hPa Calm   5 mph /  8.0 km/h 75 % 0 in /  0.0 mm
10:17 72.1 °F /  22.3 °C 63.3 °F /  17.4 °C 30.1 in /  1018.2 hPa SSW 4 mph /  6.4 km/h 4 mph /  6.4 km/h 74 % 0 in /  0.0 mm
10:22 72 °F /  22.2 °C 64.4 °F /  18.0 °C 30.1 in /  1018.5 hPa Calm   5 mph /  8.0 km/h 77 % 0 in /  0.0 mm
10:27 72.9 °F /  22.7 °C 64.4 °F /  18.0 °C 30.1 in /  1018.5 hPa South 4 mph /  6.4 km/h 5 mph /  8.0 km/h 75 % 0 in /  0.0 mm
10:32 73 °F /  22.8 °C 64.6 °F /  18.1 °C 30.1 in /  1018.2 hPa SW 4 mph /  6.4 km/h 5 mph /  8.0 km/h 75 % 0 in /  0.0 mm
10:37 73 °F /  22.8 °C 63.9 °F /  17.7 °C 30.1 in /  1018.2 hPa SE 1 mph /  1.6 km/h 5 mph /  8.0 km/h 73 % 0 in /  0.0 mm
10:42 73.9 °F /  23.3 °C 64.4 °F /  18.0 °C 30.1 in /  1018.2 hPa SE 2 mph /  3.2 km/h 5 mph /  8.0 km/h 72 % 0 in /  0.0 mm
10:47 73.6 °F /  23.1 °C 63.7 °F /  17.6 °C 30.1 in /  1018.2 hPa SSW 1 mph /  1.6 km/h 5 mph /  8.0 km/h 71 % 0 in /  0.0 mm
10:52 73.9 °F /  23.3 °C 64.4 °F /  18.0 °C 30.1 in /  1018.2 hPa Calm   5 mph /  8.0 km/h 72 % 0 in /  0.0 mm
11:02 74.5 °F /  23.6 °C 64.4 °F /  18.0 °C 30.1 in /  1017.8 hPa SSW 2 mph /  3.2 km/h 5 mph /  8.0 km/h 71 % 0 in /  0.0 mm
11:07 74.8 °F /  23.8 °C 63.5 °F /  17.5 °C 30.1 in /  1018.2 hPa South 5 mph /  8.0 km/h 5 mph /  8.0 km/h 68 % 0 in /  0.0 mm
11:12 74.8 °F /  23.8 °C 63.5 °F /  17.5 °C 30.1 in /  1018.2 hPa East 2 mph /  3.2 km/h 5 mph /  8.0 km/h 68 % 0 in /  0.0 mm
11:17 75 °F /  23.9 °C 63.7 °F /  17.6 °C 30.1 in /  1018.2 hPa SW 2 mph /  3.2 km/h 6 mph /  9.7 km/h 68 % 0 in /  0.0 mm
11:22 75 °F /  23.9 °C 63.3 °F /  17.4 °C 30.1 in /  1018.2 hPa SE 1 mph /  1.6 km/h 6 mph /  9.7 km/h 67 % 0 in /  0.0 mm
11:32 75.7 °F /  24.3 °C 62.8 °F /  17.1 °C 30.1 in /  1018.2 hPa SSW 5 mph /  8.0 km/h 7 mph /  11.3 km/h 64 % 0 in /  0.0 mm
11:37 75.9 °F /  24.4 °C 63.3 °F /  17.4 °C 30.1 in /  1018.2 hPa SW 2 mph /  3.2 km/h 6 mph /  9.7 km/h 65 % 0 in /  0.0 mm
11:42 76.1 °F /  24.5 °C 62.6 °F /  17.0 °C 30.1 in /  1017.8 hPa SW 2 mph /  3.2 km/h 6 mph /  9.7 km/h 63 % 0 in /  0.0 mm
11:47 76.5 °F /  24.7 °C 63 °F /  17.2 °C 30.1 in /  1017.8 hPa SW 3 mph /  4.8 km/h 7 mph /  11.3 km/h 63 % 0 in /  0.0 mm
11:52 76.6 °F /  24.8 °C 62.6 °F /  17.0 °C 30.1 in /  1017.8 hPa SE 3 mph /  4.8 km/h 8 mph /  12.9 km/h 62 % 0 in /  0.0 mm
11:57 76.6 °F /  24.8 °C 63.1 °F /  17.3 °C 30.1 in /  1017.8 hPa ENE 2 mph /  3.2 km/h 8 mph /  12.9 km/h 63 % 0 in /  0.0 mm
12:02 77.2 °F /  25.1 °C 63.1 °F /  17.3 °C 30.1 in /  1017.8 hPa SE 2 mph /  3.2 km/h 8 mph /  12.9 km/h 62 % 0 in /  0.0 mm
12:12 77.7 °F /  25.4 °C 63.1 °F /  17.3 °C 30.1 in /  1017.8 hPa Calm   6 mph /  9.7 km/h 61 % 0 in /  0.0 mm
12:17 78.6 °F /  25.9 °C 63.1 °F /  17.3 °C 30.1 in /  1017.8 hPa ESE 3 mph /  4.8 km/h 6 mph /  9.7 km/h 59 % 0 in /  0.0 mm
12:22 78.4 °F /  25.8 °C 63.3 °F /  17.4 °C 30.1 in /  1017.8 hPa ESE 2 mph /  3.2 km/h 7 mph /  11.3 km/h 60 % 0 in /  0.0 mm
12:27 78.4 °F /  25.8 °C 63.9 °F /  17.7 °C 30.1 in /  1017.8 hPa SW 5 mph /  8.0 km/h 7 mph /  11.3 km/h 61 % 0 in /  0.0 mm
12:32 78.6 °F /  25.9 °C 64.6 °F /  18.1 °C 30.1 in /  1017.8 hPa South 3 mph /  4.8 km/h 7 mph /  11.3 km/h 62 % 0 in /  0.0 mm
12:37 78.8 °F /  26.0 °C 62.2 °F /  16.8 °C 30.1 in /  1017.8 hPa WSW 4 mph /  6.4 km/h 6 mph /  9.7 km/h 57 % 0 in /  0.0 mm
12:42 78.6 °F /  25.9 °C 61.2 °F /  16.2 °C 30.1 in /  1017.8 hPa SW 7 mph /  11.3 km/h 8 mph /  12.9 km/h 55 % 0 in /  0.0 mm
12:47 78.8 °F /  26.0 °C 61.7 °F /  16.5 °C 30.1 in /  1017.8 hPa ESE 5 mph /  8.0 km/h 8 mph /  12.9 km/h 56 % 0 in /  0.0 mm
12:52 79.3 °F /  26.3 °C 61.7 °F /  16.5 °C 30.1 in /  1017.8 hPa SW 2 mph /  3.2 km/h 7 mph /  11.3 km/h 55 % 0 in /  0.0 mm
12:57 79.3 °F /  26.3 °C 60.8 °F /  16.0 °C 30.1 in /  1017.8 hPa SW 2 mph /  3.2 km/h 7 mph /  11.3 km/h 53 % 0 in /  0.0 mm
13:02 79 °F /  26.1 °C 61.5 °F /  16.4 °C 30.1 in /  1017.8 hPa WSW 2 mph /  3.2 km/h 10 mph /  16.1 km/h 55 % 0 in /  0.0 mm
13:12 80.1 °F /  26.7 °C 62.4 °F /  16.9 °C 30.1 in /  1017.5 hPa SW 4 mph /  6.4 km/h 7 mph /  11.3 km/h 55 % 0 in /  0.0 mm
13:17 79.9 °F /  26.6 °C 62.8 °F /  17.1 °C 30.1 in /  1017.5 hPa Calm   10 mph /  16.1 km/h 56 % 0 in /  0.0 mm
13:22 79.9 °F /  26.6 °C 63.3 °F /  17.4 °C 30.1 in /  1017.5 hPa South 3 mph /  4.8 km/h 10 mph /  16.1 km/h 57 % 0 in /  0.0 mm
13:27 79.5 °F /  26.4 °C 61.3 °F /  16.3 °C 30.1 in /  1017.5 hPa SSW 5 mph /  8.0 km/h 10 mph /  16.1 km/h 54 % 0 in /  0.0 mm
13:32 79.5 °F /  26.4 °C 59.7 °F /  15.4 °C 30.1 in /  1017.5 hPa West 3 mph /  4.8 km/h 9 mph /  14.5 km/h 51 % 0 in /  0.0 mm
13:37 79.9 °F /  26.6 °C 61.7 °F /  16.5 °C 30 in /  1017.2 hPa WSW 4 mph /  6.4 km/h 9 mph /  14.5 km/h 54 % 0 in /  0.0 mm
13:42 80.6 °F /  27.0 °C 61.9 °F /  16.6 °C 30 in /  1017.2 hPa SE 4 mph /  6.4 km/h 8 mph /  12.9 km/h 53 % 0 in /  0.0 mm
13:47 80.8 °F /  27.1 °C 61.5 °F /  16.4 °C 30 in /  1017.2 hPa WSW 5 mph /  8.0 km/h 7 mph /  11.3 km/h 52 % 0 in /  0.0 mm
13:52 80.8 °F /  27.1 °C 62.6 °F /  17.0 °C 30 in /  1017.2 hPa WSW 2 mph /  3.2 km/h 10 mph /  16.1 km/h 54 % 0 in /  0.0 mm
13:57 80.4 °F /  26.9 °C 62.8 °F /  17.1 °C 30 in /  1017.2 hPa South 8 mph /  12.9 km/h 10 mph /  16.1 km/h 55 % 0 in /  0.0 mm
14:02 80.8 °F /  27.1 °C 64 °F /  17.8 °C 30 in /  1017.2 hPa SW 9 mph /  14.5 km/h 10 mph /  16.1 km/h 57 % 0 in /  0.0 mm
14:07 80.4 °F /  26.9 °C 62.8 °F /  17.1 °C 30 in /  1017.2 hPa SSW 4 mph /  6.4 km/h 11 mph /  17.7 km/h 55 % 0 in /  0.0 mm
14:12 80.2 °F /  26.8 °C 62.6 °F /  17.0 °C 30 in /  1017.2 hPa SW 8 mph /  12.9 km/h 12 mph /  19.3 km/h 55 % 0 in /  0.0 mm
14:17 80.2 °F /  26.8 °C 63.1 °F /  17.3 °C 30 in /  1017.2 hPa WSW 3 mph /  4.8 km/h 12 mph /  19.3 km/h 56 % 0 in /  0.0 mm
14:22 80.4 °F /  26.9 °C 62.2 °F /  16.8 °C 30 in /  1016.8 hPa WSW 5 mph /  8.0 km/h 12 mph /  19.3 km/h 54 % 0 in /  0.0 mm
14:27 80.4 °F /  26.9 °C 62.2 °F /  16.8 °C 30 in /  1016.8 hPa SSW 6 mph /  9.7 km/h 10 mph /  16.1 km/h 54 % 0 in /  0.0 mm
14:32 81 °F /  27.2 °C 62.2 °F /  16.8 °C 30 in /  1016.8 hPa SSW 2 mph /  3.2 km/h 9 mph /  14.5 km/h 53 % 0 in /  0.0 mm
14:37 81.1 °F /  27.3 °C 63 °F /  17.2 °C 30 in /  1016.8 hPa SSW 6 mph /  9.7 km/h 9 mph /  14.5 km/h 54 % 0 in /  0.0 mm
14:42 81.1 °F /  27.3 °C 61.9 °F /  16.6 °C 30 in /  1016.8 hPa Calm   11 mph /  17.7 km/h 52 % 0 in /  0.0 mm
14:47 81.9 °F /  27.7 °C 60.8 °F /  16.0 °C 30 in /  1016.8 hPa SSW 6 mph /  9.7 km/h 11 mph /  17.7 km/h 49 % 0 in /  0.0 mm
14:57 82 °F /  27.8 °C 61.5 °F /  16.4 °C 30 in /  1016.5 hPa SSE 4 mph /  6.4 km/h 11 mph /  17.7 km/h 50 % 0 in /  0.0 mm
15:02 82 °F /  27.8 °C 62.1 °F /  16.7 °C 30 in /  1016.5 hPa SSW 5 mph /  8.0 km/h 11 mph /  17.7 km/h 51 % 0 in /  0.0 mm
15:07 82 °F /  27.8 °C 61.5 °F /  16.4 °C 30 in /  1016.5 hPa SW 3 mph /  4.8 km/h 11 mph /  17.7 km/h 50 % 0 in /  0.0 mm
15:12 82 °F /  27.8 °C 62.1 °F /  16.7 °C 30 in /  1016.5 hPa WSW 4 mph /  6.4 km/h 11 mph /  17.7 km/h 51 % 0 in /  0.0 mm
15:17 81.3 °F /  27.4 °C 61 °F /  16.1 °C 30 in /  1016.5 hPa WSW 4 mph /  6.4 km/h 10 mph /  16.1 km/h 50 % 0 in /  0.0 mm
15:22 80.6 °F /  27.0 °C 61.3 °F /  16.3 °C 30 in /  1016.5 hPa WNW 1 mph /  1.6 km/h 10 mph /  16.1 km/h 52 % 0 in /  0.0 mm
15:27 81.1 °F /  27.3 °C 62.4 °F /  16.9 °C 30 in /  1016.5 hPa WNW 3 mph /  4.8 km/h 9 mph /  14.5 km/h 53 % 0 in /  0.0 mm
15:32 81 °F /  27.2 °C 60.6 °F /  15.9 °C 30 in /  1016.5 hPa West 6 mph /  9.7 km/h 11 mph /  17.7 km/h 50 % 0 in /  0.0 mm
15:37 79.7 °F /  26.5 °C 63.1 °F /  17.3 °C 30 in /  1016.5 hPa West 6 mph /  9.7 km/h 12 mph /  19.3 km/h 57 % 0 in /  0.0 mm
15:42 78.4 °F /  25.8 °C 63.3 °F /  17.4 °C 30 in /  1016.5 hPa WSW 9 mph /  14.5 km/h 14 mph /  22.5 km/h 60 % 0 in /  0.0 mm
15:47 77.7 °F /  25.4 °C 61.7 °F /  16.5 °C 30 in /  1016.5 hPa West 7 mph /  11.3 km/h 14 mph /  22.5 km/h 58 % 0 in /  0.0 mm
15:52 77.7 °F /  25.4 °C 62.2 °F /  16.8 °C 30 in /  1016.5 hPa WNW 6 mph /  9.7 km/h 14 mph /  22.5 km/h 59 % 0 in /  0.0 mm
15:57 78.3 °F /  25.7 °C 61.3 °F /  16.3 °C 30 in /  1016.5 hPa West 6 mph /  9.7 km/h 13 mph /  20.9 km/h 56 % 0 in /  0.0 mm
16:02 78.4 °F /  25.8 °C 61.5 °F /  16.4 °C 30 in /  1016.5 hPa West 5 mph /  8.0 km/h 13 mph /  20.9 km/h 56 % 0 in /  0.0 mm
16:07 78.4 °F /  25.8 °C 61.9 °F /  16.6 °C 30 in /  1016.5 hPa WSW 2 mph /  3.2 km/h 10 mph /  16.1 km/h 57 % 0 in /  0.0 mm
16:12 78.4 °F /  25.8 °C 61.9 °F /  16.6 °C 30 in /  1016.5 hPa WNW 4 mph /  6.4 km/h 9 mph /  14.5 km/h 57 % 0 in /  0.0 mm
16:17 78.3 °F /  25.7 °C 62.2 °F /  16.8 °C 30 in /  1016.1 hPa West 6 mph /  9.7 km/h 9 mph /  14.5 km/h 58 % 0 in /  0.0 mm
16:22 78.6 °F /  25.9 °C 63.1 °F /  17.3 °C 30 in /  1016.1 hPa West 5 mph /  8.0 km/h 8 mph /  12.9 km/h 59 % 0 in /  0.0 mm
16:27 78.6 °F /  25.9 °C 63.1 °F /  17.3 °C 30 in /  1016.1 hPa WSW 2 mph /  3.2 km/h 8 mph /  12.9 km/h 59 % 0 in /  0.0 mm
16:32 79 °F /  26.1 °C 63.5 °F /  17.5 °C 30 in /  1016.1 hPa West 3 mph /  4.8 km/h 8 mph /  12.9 km/h 59 % 0 in /  0.0 mm
16:37 79.3 °F /  26.3 °C 63.3 °F /  17.4 °C 30 in /  1016.1 hPa WNW 3 mph /  4.8 km/h 9 mph /  14.5 km/h 58 % 0 in /  0.0 mm
16:42 80.1 °F /  26.7 °C 61.9 °F /  16.6 °C 30 in /  1016.1 hPa West 4 mph /  6.4 km/h 9 mph /  14.5 km/h 54 % 0 in /  0.0 mm
16:47 80.8 °F /  27.1 °C 63.1 °F /  17.3 °C 30 in /  1016.1 hPa WSW 2 mph /  3.2 km/h 9 mph /  14.5 km/h 55 % 0 in /  0.0 mm
16:52 81.3 °F /  27.4 °C 64.6 °F /  18.1 °C 30 in /  1016.1 hPa WNW 3 mph /  4.8 km/h 8 mph /  12.9 km/h 57 % 0 in /  0.0 mm
16:57 81.1 °F /  27.3 °C 61.3 °F /  16.3 °C 30 in /  1016.1 hPa West 5 mph /  8.0 km/h 8 mph /  12.9 km/h 51 % 0 in /  0.0 mm
17:02 81 °F /  27.2 °C 62.8 °F /  17.1 °C 30 in /  1016.1 hPa SW 3 mph /  4.8 km/h 11 mph /  17.7 km/h 54 % 0 in /  0.0 mm
17:07 81 °F /  27.2 °C 62.2 °F /  16.8 °C 30 in /  1016.1 hPa SW 5 mph /  8.0 km/h 11 mph /  17.7 km/h 53 % 0 in /  0.0 mm
17:12 81 °F /  27.2 °C 62.2 °F /  16.8 °C 30 in /  1016.1 hPa WSW 6 mph /  9.7 km/h 10 mph /  16.1 km/h 53 % 0 in /  0.0 mm
17:17 81 °F /  27.2 °C 62.8 °F /  17.1 °C 30 in /  1016.1 hPa SW 6 mph /  9.7 km/h 10 mph /  16.1 km/h 54 % 0 in /  0.0 mm
17:22 81.3 °F /  27.4 °C 62.6 °F /  17.0 °C 30 in /  1016.1 hPa WNW 3 mph /  4.8 km/h 10 mph /  16.1 km/h 53 % 0 in /  0.0 mm
17:27 81.7 °F /  27.6 °C 63.5 °F /  17.5 °C 30 in /  1015.8 hPa West 3 mph /  4.8 km/h 10 mph /  16.1 km/h 54 % 0 in /  0.0 mm
17:32 81.9 °F /  27.7 °C 62.4 °F /  16.9 °C 30 in /  1015.8 hPa SW 6 mph /  9.7 km/h 8 mph /  12.9 km/h 52 % 0 in /  0.0 mm
17:37 81.5 °F /  27.5 °C 61.7 °F /  16.5 °C 30 in /  1015.8 hPa SW 2 mph /  3.2 km/h 8 mph /  12.9 km/h 51 % 0 in /  0.0 mm
17:42 81.3 °F /  27.4 °C 63.7 °F /  17.6 °C 30 in /  1015.8 hPa WSW 5 mph /  8.0 km/h 11 mph /  17.7 km/h 55 % 0 in /  0.0 mm
17:47 81.3 °F /  27.4 °C 63.7 °F /  17.6 °C 30 in /  1015.8 hPa West 3 mph /  4.8 km/h 11 mph /  17.7 km/h 55 % 0 in /  0.0 mm
17:52 81.5 °F /  27.5 °C 62.8 °F /  17.1 °C 30 in /  1015.8 hPa SW 3 mph /  4.8 km/h 11 mph /  17.7 km/h 53 % 0 in /  0.0 mm
17:57 81.9 °F /  27.7 °C 63 °F /  17.2 °C 30 in /  1015.8 hPa SSW 4 mph /  6.4 km/h 10 mph /  16.1 km/h 53 % 0 in /  0.0 mm
18:02 81.7 °F /  27.6 °C 63.5 °F /  17.5 °C 30 in /  1015.5 hPa South 3 mph /  4.8 km/h 10 mph /  16.1 km/h 54 % 0 in /  0.0 mm
18:07 82 °F /  27.8 °C 62.6 °F /  17.0 °C 30 in /  1015.8 hPa WSW 4 mph /  6.4 km/h 10 mph /  16.1 km/h 52 % 0 in /  0.0 mm
18:12 82 °F /  27.8 °C 62.1 °F /  16.7 °C 30 in /  1015.5 hPa West 6 mph /  9.7 km/h 8 mph /  12.9 km/h 51 % 0 in /  0.0 mm
18:17 81.9 °F /  27.7 °C 61.3 °F /  16.3 °C 30 in /  1015.5 hPa SW 7 mph /  11.3 km/h 9 mph /  14.5 km/h 50 % 0 in /  0.0 mm
18:22 81.7 °F /  27.6 °C 61.9 °F /  16.6 °C 30 in /  1015.5 hPa SW 4 mph /  6.4 km/h 9 mph /  14.5 km/h 51 % 0 in /  0.0 mm
18:27 81.9 °F /  27.7 °C 61.9 °F /  16.6 °C 30 in /  1015.5 hPa West 3 mph /  4.8 km/h 11 mph /  17.7 km/h 51 % 0 in /  0.0 mm
18:32 81.5 °F /  27.5 °C 62.2 °F /  16.8 °C 30 in /  1015.5 hPa WSW 5 mph /  8.0 km/h 11 mph /  17.7 km/h 52 % 0 in /  0.0 mm
18:42 80.6 °F /  27.0 °C 61.9 °F /  16.6 °C 30 in /  1015.1 hPa WSW 4 mph /  6.4 km/h 9 mph /  14.5 km/h 53 % 0 in /  0.0 mm
18:47 80.1 °F /  26.7 °C 61.3 °F /  16.3 °C 30 in /  1015.5 hPa WSW 3 mph /  4.8 km/h 9 mph /  14.5 km/h 53 % 0 in /  0.0 mm
18:52 79.5 °F /  26.4 °C 61.9 °F /  16.6 °C 30 in /  1015.5 hPa WSW 3 mph /  4.8 km/h 9 mph /  14.5 km/h 55 % 0 in /  0.0 mm
18:57 79.2 °F /  26.2 °C 62.1 °F /  16.7 °C 30 in /  1015.5 hPa WSW 3 mph /  4.8 km/h 9 mph /  14.5 km/h 56 % 0 in /  0.0 mm
19:02 78.8 °F /  26.0 °C 62.2 °F /  16.8 °C 30 in /  1015.5 hPa SW 2 mph /  3.2 km/h 7 mph /  11.3 km/h 57 % 0 in /  0.0 mm
19:07 78.4 °F /  25.8 °C 61.9 °F /  16.6 °C 30 in /  1015.5 hPa West 5 mph /  8.0 km/h 7 mph /  11.3 km/h 57 % 0 in /  0.0 mm
19:12 77.7 °F /  25.4 °C 62.2 °F /  16.8 °C 30 in /  1015.5 hPa WSW 7 mph /  11.3 km/h 10 mph /  16.1 km/h 59 % 0 in /  0.0 mm
19:17 76.8 °F /  24.9 °C 63.3 °F /  17.4 °C 30 in /  1015.5 hPa West 8 mph /  12.9 km/h 11 mph /  17.7 km/h 63 % 0 in /  0.0 mm
19:22 75.9 °F /  24.4 °C 62.8 °F /  17.1 °C 30 in /  1015.5 hPa WSW 5 mph /  8.0 km/h 12 mph /  19.3 km/h 64 % 0 in /  0.0 mm
19:27 75.6 °F /  24.2 °C 63.3 °F /  17.4 °C 30 in /  1015.5 hPa West 2 mph /  3.2 km/h 12 mph /  19.3 km/h 66 % 0 in /  0.0 mm
19:32 75.6 °F /  24.2 °C 63.3 °F /  17.4 °C 30 in /  1015.5 hPa WNW 2 mph /  3.2 km/h 9 mph /  14.5 km/h 66 % 0 in /  0.0 mm
19:42 75.7 °F /  24.3 °C 62.2 °F /  16.8 °C 30 in /  1015.5 hPa WSW 3 mph /  4.8 km/h 6 mph /  9.7 km/h 63 % 0 in /  0.0 mm
19:47 75.7 °F /  24.3 °C 60.8 °F /  16.0 °C 30 in /  1015.5 hPa West 3 mph /  4.8 km/h 6 mph /  9.7 km/h 60 % 0 in /  0.0 mm
19:52 75.7 °F /  24.3 °C 61.3 °F /  16.3 °C 30 in /  1015.5 hPa West 1 mph /  1.6 km/h 6 mph /  9.7 km/h 61 % 0 in /  0.0 mm
19:57 75.9 °F /  24.4 °C 61 °F /  16.1 °C 30 in /  1015.8 hPa West 1 mph /  1.6 km/h 6 mph /  9.7 km/h 60 % 0 in /  0.0 mm
20:02 76.5 °F /  24.7 °C 62.1 °F /  16.7 °C 30 in /  1015.8 hPa WNW 1 mph /  1.6 km/h 5 mph /  8.0 km/h 61 % 0 in /  0.0 mm
20:07 76.6 °F /  24.8 °C 61.7 °F /  16.5 °C 30 in /  1015.8 hPa West 2 mph /  3.2 km/h 4 mph /  6.4 km/h 60 % 0 in /  0.0 mm
20:12 77.2 °F /  25.1 °C 61.7 °F /  16.5 °C 30 in /  1015.8 hPa West 2 mph /  3.2 km/h 4 mph /  6.4 km/h 59 % 0 in /  0.0 mm
20:17 77.2 °F /  25.1 °C 61.7 °F /  16.5 °C 30 in /  1015.5 hPa West 1 mph /  1.6 km/h 4 mph /  6.4 km/h 59 % 0 in /  0.0 mm
20:22 77.4 °F /  25.2 °C 62.4 °F /  16.9 °C 30 in /  1015.8 hPa WNW 1 mph /  1.6 km/h 4 mph /  6.4 km/h 60 % 0 in /  0.0 mm
20:27 77.4 °F /  25.2 °C 62.8 °F /  17.1 °C 30 in /  1015.8 hPa WSW 2 mph /  3.2 km/h 3 mph /  4.8 km/h 61 % 0 in /  0.0 mm
20:32 77.4 °F /  25.2 °C 62.8 °F /  17.1 °C 30 in /  1015.5 hPa West 1 mph /  1.6 km/h 3 mph /  4.8 km/h 61 % 0 in /  0.0 mm
20:37 77.2 °F /  25.1 °C 62.6 °F /  17.0 °C 30 in /  1015.5 hPa West 1 mph /  1.6 km/h 3 mph /  4.8 km/h 61 % 0 in /  0.0 mm
20:42 76.8 °F /  24.9 °C 62.8 °F /  17.1 °C 30 in /  1015.8 hPa West 2 mph /  3.2 km/h 5 mph /  8.0 km/h 62 % 0 in /  0.0 mm
20:47 76.5 °F /  24.7 °C 63 °F /  17.2 °C 30 in /  1015.8 hPa WSW 2 mph /  3.2 km/h 5 mph /  8.0 km/h 63 % 0 in /  0.0 mm
20:52 75.9 °F /  24.4 °C 63.3 °F /  17.4 °C 30 in /  1015.8 hPa West 3 mph /  4.8 km/h 5 mph /  8.0 km/h 65 % 0 in /  0.0 mm
20:57 75.6 °F /  24.2 °C 63.9 °F /  17.7 °C 30 in /  1015.8 hPa WSW 1 mph /  1.6 km/h 4 mph /  6.4 km/h 67 % 0 in /  0.0 mm
21:02 75 °F /  23.9 °C 63.7 °F /  17.6 °C 30 in /  1015.8 hPa WSW 2 mph /  3.2 km/h 4 mph /  6.4 km/h 68 % 0 in /  0.0 mm
21:07 74.7 °F /  23.7 °C 63.9 °F /  17.7 °C 30 in /  1015.8 hPa WSW 3 mph /  4.8 km/h 4 mph /  6.4 km/h 69 % 0 in /  0.0 mm
21:12 74.5 °F /  23.6 °C 63.7 °F /  17.6 °C 30 in /  1015.8 hPa West 2 mph /  3.2 km/h 4 mph /  6.4 km/h 69 % 0 in /  0.0 mm
21:17 73.9 °F /  23.3 °C 63.5 °F /  17.5 °C 30 in /  1015.8 hPa WSW 2 mph /  3.2 km/h 4 mph /  6.4 km/h 70 % 0 in /  0.0 mm
21:22 73.9 °F /  23.3 °C 63.5 °F /  17.5 °C 30 in /  1015.8 hPa West 1 mph /  1.6 km/h 4 mph /  6.4 km/h 70 % 0 in /  0.0 mm
21:27 73.6 °F /  23.1 °C 63.7 °F /  17.6 °C 30 in /  1015.8 hPa West 1 mph /  1.6 km/h 3 mph /  4.8 km/h 71 % 0 in /  0.0 mm
21:32 73.2 °F /  22.9 °C 63.7 °F /  17.6 °C 30 in /  1015.8 hPa WSW 1 mph /  1.6 km/h 3 mph /  4.8 km/h 72 % 0 in /  0.0 mm
21:37 72.9 °F /  22.7 °C 63.3 °F /  17.4 °C 30 in /  1016.1 hPa Calm   3 mph /  4.8 km/h 72 % 0 in /  0.0 mm
21:42 72.7 °F /  22.6 °C 63.5 °F /  17.5 °C 30 in /  1016.1 hPa WNW 1 mph /  1.6 km/h 3 mph /  4.8 km/h 73 % 0 in /  0.0 mm
21:47 72.3 °F /  22.4 °C 63.1 °F /  17.3 °C 30 in /  1016.1 hPa WNW 1 mph /  1.6 km/h 2 mph /  3.2 km/h 73 % 0 in /  0.0 mm
21:52 72 °F /  22.2 °C 62.4 °F /  16.9 °C 30 in /  1016.5 hPa NNW 7 mph /  11.3 km/h 7 mph /  11.3 km/h 72 % 0 in /  0.0 mm
22:02 71.1 °F /  21.7 °C 59.5 °F /  15.3 °C 30 in /  1016.5 hPa NNE 2 mph /  3.2 km/h 17 mph /  27.4 km/h 67 % 0 in /  0.0 mm
22:07 70.7 °F /  21.5 °C 59.5 °F /  15.3 °C 30 in /  1016.5 hPa WNW 2 mph /  3.2 km/h 11 mph /  17.7 km/h 68 % 0 in /  0.0 mm
22:12 70.3 °F /  21.3 °C 59.4 °F /  15.2 °C 30 in /  1016.5 hPa NNW 2 mph /  3.2 km/h 8 mph /  12.9 km/h 68 % 0 in /  0.0 mm
22:22 69.8 °F /  21.0 °C 59.5 °F /  15.3 °C 30 in /  1016.5 hPa NW 1 mph /  1.6 km/h 5 mph /  8.0 km/h 70 % 0 in /  0.0 mm
22:27 69.4 °F /  20.8 °C 59.5 °F /  15.3 °C 30 in /  1016.5 hPa Calm   4 mph /  6.4 km/h 71 % 0 in /  0.0 mm
22:32 69.1 °F /  20.6 °C 59.4 °F /  15.2 °C 30 in /  1016.5 hPa Calm   3 mph /  4.8 km/h 71 % 0 in /  0.0 mm
22:37 69.1 °F /  20.6 °C 59.7 °F /  15.4 °C 30 in /  1016.5 hPa Calm   2 mph /  3.2 km/h 72 % 0 in /  0.0 mm
22:42 68.7 °F /  20.4 °C 60.1 °F /  15.6 °C 30 in /  1016.5 hPa Calm   2 mph /  3.2 km/h 74 % 0 in /  0.0 mm
22:47 68.5 °F /  20.3 °C 60.3 °F /  15.7 °C 30 in /  1016.5 hPa Calm   2 mph /  3.2 km/h 75 % 0 in /  0.0 mm
22:52 68.4 °F /  20.2 °C 60.4 °F /  15.8 °C 30 in /  1016.5 hPa NW 1 mph /  1.6 km/h 2 mph /  3.2 km/h 76 % 0 in /  0.0 mm
22:57 68.5 °F /  20.3 °C 60.6 °F /  15.9 °C 30 in /  1016.5 hPa Calm   2 mph /  3.2 km/h 76 % 0 in /  0.0 mm
23:02 68.5 °F /  20.3 °C 61 °F /  16.1 °C 30 in /  1016.5 hPa Calm   2 mph /  3.2 km/h 77 % 0 in /  0.0 mm
23:12 67.6 °F /  19.8 °C 60.3 °F /  15.7 °C 30 in /  1016.8 hPa Calm   4 mph /  6.4 km/h 77 % 0 in /  0.0 mm
23:17 67.5 °F /  19.7 °C 60.1 °F /  15.6 °C 30 in /  1016.8 hPa Calm   4 mph /  6.4 km/h 77 % 0 in /  0.0 mm
23:22 67.3 °F /  19.6 °C 59.9 °F /  15.5 °C 30 in /  1016.8 hPa Calm   3 mph /  4.8 km/h 77 % 0 in /  0.0 mm
23:27 66.9 °F /  19.4 °C 60.3 °F /  15.7 °C 30 in /  1016.8 hPa Calm   1 mph /  1.6 km/h 79 % 0 in /  0.0 mm
23:37 66 °F /  18.9 °C 60.4 °F /  15.8 °C 30 in /  1016.8 hPa NE 2 mph /  3.2 km/h 4 mph /  6.4 km/h 82 % 0 in /  0.0 mm
23:42 66.2 °F /  19.0 °C 60.8 °F /  16.0 °C 30 in /  1016.8 hPa Calm   4 mph /  6.4 km/h 83 % 0 in /  0.0 mm
23:47 66.2 °F /  19.0 °C 60.8 °F /  16.0 °C 30 in /  1016.8 hPa Calm   4 mph /  6.4 km/h 83 % 0 in /  0.0 mm
23:52 66 °F /  18.9 °C 60.6 °F /  15.9 °C 30 in /  1016.5 hPa Calm   3 mph /  4.8 km/h 83 % 0 in /  0.0 mm
23:57 66 °F /  18.9 °C 61.3 °F /  16.3 °C 30 in /  1016.5 hPa Calm   1 mph /  1.6 km/h 85 % 0 in /  0.0 mm
Meteo18
Compliments of Weather Underground - 4 mb

Script developed by  Jim McMurry - jmcmurry@mwt.net Adapted for the template by  Wim van der Kuil - Leuven-Template.eu

You find our weather info also at:

European Weather Network

Weather Underground

Equipment we use:

Weather-station
Davis Vue

Weather-program
Meteohub

Weather-server
Raspberry PI 2 B+

Provider
1 and 1

Davis Vue

Meteohub

Raspberry PI 2 B+

1 and 1